KAPA/APA METAR and TAF weather

Enter ICAO airport designator
Station Type Date Time Source
KAPA METAR 2022/10/01 08:53 UTC NOAA

KAPA 010853Z 16005KT 10SM SCT065 BKN110 11/09 A3011 RMK AO2 SLP138 T01060089 50001


Station Type Date Time Source
KAPA Decoded METAR 2022/10/01 08:53 UTC NOAA

DENVER CENTENNIAL AIRPORT, CO, United States (KAPA) 39-34N 104-51W 1775M
Oct 01, 2022 - 04:53 AM EDT / 2022.10.01 0853 UTC
Wind: from the SSE (160 degrees) at 6 MPH (5 KT):0
Visibility: 10 mile(s):0
Sky conditions: mostly cloudy
Temperature: 51.1 F (10.6 C)
Dew Point: 48.0 F (8.9 C)
Relative Humidity: 89%
Pressure (altimeter): 30.11 in. Hg (1019 hPa)
Pressure tendency: 0.00 inches (0.1 hPa) higher than three hours ago
ob: KAPA 010853Z 16005KT 10SM SCT065 BKN110 11/09 A3011 RMK AO2 SLP138 T01060089 50001
cycle: 9

Station Type Date Time Source
KAPA TAF 2022/10/01 09:03 UTC NOAA

TAF
AMD KAPA 010902Z 0109/0206 17006KT P6SM SCT060 BKN110
FM011500 09006KT P6SM SCT070 SCT150
FM011900 11008KT P6SM SCT070 OVC120
FM012100 09010KT P6SM SCT060 BKN120
TEMPO 0121/0201 VRB20G35KT 5SM TSRA SCT020 BKN040CB
FM020100 VRB06KT P6SM VCSH FEW030 OVC100
FM020500 19006KT 5SM BR VCFG SCT005

Example: see airport list